sensor_id;sensor_type;location;lat;lon;timestamp;P1;durP1;ratioP1;P2;durP2;ratioP2
21432;SDS011;18592;49.708;10.900;2023-10-09T00:00:18;4.18;;;2.60;;
21432;SDS011;18592;49.708;10.900;2023-10-09T00:02:38;3.13;;;2.50;;
21432;SDS011;18592;49.708;10.900;2023-10-09T00:04:44;3.17;;;2.80;;
21432;SDS011;18592;49.708;10.900;2023-10-09T00:06:47;3.72;;;3.05;;
21432;SDS011;18592;49.708;10.900;2023-10-09T00:08:49;3.00;;;2.67;;
21432;SDS011;18592;49.708;10.900;2023-10-09T00:10:56;4.68;;;3.55;;
21432;SDS011;18592;49.708;10.900;2023-10-09T00:13:22;3.20;;;2.78;;
21432;SDS011;18592;49.708;10.900;2023-10-09T00:15:34;5.65;;;3.00;;
21432;SDS011;18592;49.708;10.900;2023-10-09T00:17:36;3.80;;;2.95;;
21432;SDS011;18592;49.708;10.900;2023-10-09T00:19:39;4.15;;;3.45;;
21432;SDS011;18592;49.708;10.900;2023-10-09T00:21:44;3.15;;;2.45;;
21432;SDS011;18592;49.708;10.900;2023-10-09T00:23:47;3.60;;;3.00;;
21432;SDS011;18592;49.708;10.900;2023-10-09T00:25:54;3.00;;;2.70;;
21432;SDS011;18592;49.708;10.900;2023-10-09T00:28:27;3.47;;;2.70;;
21432;SDS011;18592;49.708;10.900;2023-10-09T00:30:29;4.45;;;2.95;;
21432;SDS011;18592;49.708;10.900;2023-10-09T00:32:32;3.75;;;3.08;;
21432;SDS011;18592;49.708;10.900;2023-10-09T00:34:41;3.55;;;2.70;;
21432;SDS011;18592;49.708;10.900;2023-10-09T00:36:44;3.47;;;2.70;;
21432;SDS011;18592;49.708;10.900;2023-10-09T00:38:53;3.38;;;2.72;;
21432;SDS011;18592;49.708;10.900;2023-10-09T00:40:55;4.45;;;3.47;;
21432;SDS011;18592;49.708;10.900;2023-10-09T00:43:11;5.63;;;3.17;;
21432;SDS011;18592;49.708;10.900;2023-10-09T00:45:14;3.17;;;2.78;;
21432;SDS011;18592;49.708;10.900;2023-10-09T00:47:28;7.05;;;3.70;;
21432;SDS011;18592;49.708;10.900;2023-10-09T00:49:37;6.32;;;3.50;;
21432;SDS011;18592;49.708;10.900;2023-10-09T00:51:44;4.20;;;3.28;;
21432;SDS011;18592;49.708;10.900;2023-10-09T00:54:01;5.78;;;3.70;;
21432;SDS011;18592;49.708;10.900;2023-10-09T00:56:08;4.88;;;3.85;;
21432;SDS011;18592;49.708;10.900;2023-10-09T00:58:20;7.38;;;3.95;;
21432;SDS011;18592;49.708;10.900;2023-10-09T01:00:32;4.97;;;3.72;;
21432;SDS011;18592;49.708;10.900;2023-10-09T01:02:34;5.32;;;3.78;;
21432;SDS011;18592;49.708;10.900;2023-10-09T01:04:43;6.18;;;4.03;;
21432;SDS011;18592;49.708;10.900;2023-10-09T01:06:46;5.05;;;3.83;;
21432;SDS011;18592;49.708;10.900;2023-10-09T01:09:05;7.57;;;4.00;;
21432;SDS011;18592;49.708;10.900;2023-10-09T01:11:12;6.40;;;4.18;;
21432;SDS011;18592;49.708;10.900;2023-10-09T01:13:26;6.90;;;4.10;;
21432;SDS011;18592;49.708;10.900;2023-10-09T01:15:41;5.70;;;3.88;;
21432;SDS011;18592;49.708;10.900;2023-10-09T01:17:49;4.28;;;3.65;;
21432;SDS011;18592;49.708;10.900;2023-10-09T01:19:50;5.32;;;3.97;;
21432;SDS011;18592;49.708;10.900;2023-10-09T01:22:04;6.05;;;4.30;;
21432;SDS011;18592;49.708;10.900;2023-10-09T01:24:16;5.78;;;4.20;;
21432;SDS011;18592;49.708;10.900;2023-10-09T01:26:21;4.85;;;3.75;;
21432;SDS011;18592;49.708;10.900;2023-10-09T01:28:24;5.32;;;3.75;;
21432;SDS011;18592;49.708;10.900;2023-10-09T01:30:27;5.35;;;3.60;;
21432;SDS011;18592;49.708;10.900;2023-10-09T01:32:29;5.57;;;3.95;;
21432;SDS011;18592;49.708;10.900;2023-10-09T01:34:31;5.53;;;4.10;;
21432;SDS011;18592;49.708;10.900;2023-10-09T01:36:44;4.40;;;3.75;;
21432;SDS011;18592;49.708;10.900;2023-10-09T01:38:50;6.03;;;3.97;;
21432;SDS011;18592;49.708;10.900;2023-10-09T01:40:52;7.10;;;4.38;;
21432;SDS011;18592;49.708;10.900;2023-10-09T01:42:57;5.15;;;3.80;;
21432;SDS011;18592;49.708;10.900;2023-10-09T01:44:58;4.72;;;3.90;;
21432;SDS011;18592;49.708;10.900;2023-10-09T01:47:10;6.68;;;4.50;;
21432;SDS011;18592;49.708;10.900;2023-10-09T01:49:15;4.63;;;3.72;;
21432;SDS011;18592;49.708;10.900;2023-10-09T01:51:23;6.38;;;4.00;;
21432;SDS011;18592;49.708;10.900;2023-10-09T01:53:24;5.88;;;3.90;;
21432;SDS011;18592;49.708;10.900;2023-10-09T01:55:31;6.38;;;3.78;;
21432;SDS011;18592;49.708;10.900;2023-10-09T01:57:42;5.43;;;4.00;;
21432;SDS011;18592;49.708;10.900;2023-10-09T01:59:46;6.43;;;3.97;;
21432;SDS011;18592;49.708;10.900;2023-10-09T02:01:50;5.70;;;4.35;;
21432;SDS011;18592;49.708;10.900;2023-10-09T02:04:00;6.25;;;4.03;;
21432;SDS011;18592;49.708;10.900;2023-10-09T02:06:09;5.78;;;4.28;;
21432;SDS011;18592;49.708;10.900;2023-10-09T02:08:31;6.20;;;4.43;;
21432;SDS011;18592;49.708;10.900;2023-10-09T02:10:36;4.25;;;3.80;;
21432;SDS011;18592;49.708;10.900;2023-10-09T02:12:40;6.25;;;4.18;;
21432;SDS011;18592;49.708;10.900;2023-10-09T02:14:42;6.85;;;4.63;;
21432;SDS011;18592;49.708;10.900;2023-10-09T02:16:48;5.55;;;3.95;;
21432;SDS011;18592;49.708;10.900;2023-10-09T02:19:10;6.03;;;4.47;;
21432;SDS011;18592;49.708;10.900;2023-10-09T02:21:32;5.47;;;3.80;;
21432;SDS011;18592;49.708;10.900;2023-10-09T02:23:43;4.93;;;4.20;;
21432;SDS011;18592;49.708;10.900;2023-10-09T02:25:58;6.00;;;4.30;;
21432;SDS011;18592;49.708;10.900;2023-10-09T02:28:03;7.57;;;4.15;;
21432;SDS011;18592;49.708;10.900;2023-10-09T02:30:07;5.93;;;4.07;;
21432;SDS011;18592;49.708;10.900;2023-10-09T02:32:30;5.60;;;4.50;;
21432;SDS011;18592;49.708;10.900;2023-10-09T02:34:34;6.55;;;4.50;;
21432;SDS011;18592;49.708;10.900;2023-10-09T02:36:39;6.10;;;3.97;;
21432;SDS011;18592;49.708;10.900;2023-10-09T02:38:43;6.00;;;4.32;;
21432;SDS011;18592;49.708;10.900;2023-10-09T02:40:45;5.78;;;4.10;;
21432;SDS011;18592;49.708;10.900;2023-10-09T02:43:07;5.85;;;4.03;;
21432;SDS011;18592;49.708;10.900;2023-10-09T02:45:14;5.43;;;4.20;;
21432;SDS011;18592;49.708;10.900;2023-10-09T02:47:26;7.15;;;4.63;;
21432;SDS011;18592;49.708;10.900;2023-10-09T02:49:40;5.93;;;4.55;;
21432;SDS011;18592;49.708;10.900;2023-10-09T02:51:42;6.63;;;4.68;;
21432;SDS011;18592;49.708;10.900;2023-10-09T02:53:43;5.43;;;4.28;;
21432;SDS011;18592;49.708;10.900;2023-10-09T02:55:45;6.07;;;3.63;;
21432;SDS011;18592;49.708;10.900;2023-10-09T02:58:06;5.82;;;3.60;;
21432;SDS011;18592;49.708;10.900;2023-10-09T03:00:11;4.78;;;3.90;;
21432;SDS011;18592;49.708;10.900;2023-10-09T03:02:20;5.40;;;3.92;;
21432;SDS011;18592;49.708;10.900;2023-10-09T03:04:26;6.88;;;4.05;;
21432;SDS011;18592;49.708;10.900;2023-10-09T03:06:32;5.93;;;3.88;;
21432;SDS011;18592;49.708;10.900;2023-10-09T03:08:37;6.13;;;4.25;;
21432;SDS011;18592;49.708;10.900;2023-10-09T03:10:40;6.25;;;3.80;;
21432;SDS011;18592;49.708;10.900;2023-10-09T03:12:41;6.57;;;3.63;;
21432;SDS011;18592;49.708;10.900;2023-10-09T03:15:01;6.47;;;4.57;;
21432;SDS011;18592;49.708;10.900;2023-10-09T03:17:07;5.35;;;3.85;;
21432;SDS011;18592;49.708;10.900;2023-10-09T03:19:16;5.60;;;4.30;;
21432;SDS011;18592;49.708;10.900;2023-10-09T03:21:18;5.85;;;4.28;;
21432;SDS011;18592;49.708;10.900;2023-10-09T03:23:20;5.25;;;4.00;;
21432;SDS011;18592;49.708;10.900;2023-10-09T03:25:22;5.30;;;3.95;;
21432;SDS011;18592;49.708;10.900;2023-10-09T03:27:26;5.90;;;4.00;;
21432;SDS011;18592;49.708;10.900;2023-10-09T03:29:28;5.93;;;4.10;;
21432;SDS011;18592;49.708;10.900;2023-10-09T03:31:29;5.22;;;4.00;;
21432;SDS011;18592;49.708;10.900;2023-10-09T03:33:34;5.97;;;4.03;;
21432;SDS011;18592;49.708;10.900;2023-10-09T03:35:37;5.22;;;3.88;;
21432;SDS011;18592;49.708;10.900;2023-10-09T03:37:40;5.53;;;3.60;;
21432;SDS011;18592;49.708;10.900;2023-10-09T03:39:42;4.90;;;3.70;;
21432;SDS011;18592;49.708;10.900;2023-10-09T03:41:44;6.18;;;3.90;;
21432;SDS011;18592;49.708;10.900;2023-10-09T03:43:48;5.18;;;3.60;;
21432;SDS011;18592;49.708;10.900;2023-10-09T03:45:49;5.90;;;3.70;;
21432;SDS011;18592;49.708;10.900;2023-10-09T03:47:54;5.53;;;3.60;;
21432;SDS011;18592;49.708;10.900;2023-10-09T03:50:22;5.82;;;3.20;;
21432;SDS011;18592;49.708;10.900;2023-10-09T03:52:36;5.28;;;3.67;;
21432;SDS011;18592;49.708;10.900;2023-10-09T03:54:38;3.92;;;3.25;;
21432;SDS011;18592;49.708;10.900;2023-10-09T03:56:40;5.00;;;3.45;;
21432;SDS011;18592;49.708;10.900;2023-10-09T03:58:42;5.35;;;3.13;;
21432;SDS011;18592;49.708;10.900;2023-10-09T04:00:46;4.88;;;2.90;;
21432;SDS011;18592;49.708;10.900;2023-10-09T04:02:48;4.53;;;3.22;;
21432;SDS011;18592;49.708;10.900;2023-10-09T04:04:52;5.40;;;3.28;;
21432;SDS011;18592;49.708;10.900;2023-10-09T04:06:53;4.57;;;3.13;;
21432;SDS011;18592;49.708;10.900;2023-10-09T04:08:55;4.95;;;3.40;;
21432;SDS011;18592;49.708;10.900;2023-10-09T04:10:57;4.03;;;3.05;;
21432;SDS011;18592;49.708;10.900;2023-10-09T04:13:05;3.72;;;3.20;;
21432;SDS011;18592;49.708;10.900;2023-10-09T04:15:11;4.35;;;3.33;;
21432;SDS011;18592;49.708;10.900;2023-10-09T04:17:15;3.40;;;3.10;;
21432;SDS011;18592;49.708;10.900;2023-10-09T04:19:36;4.72;;;3.30;;
21432;SDS011;18592;49.708;10.900;2023-10-09T04:21:49;4.70;;;3.28;;
21432;SDS011;18592;49.708;10.900;2023-10-09T04:23:50;4.07;;;3.28;;
21432;SDS011;18592;49.708;10.900;2023-10-09T04:26:01;4.97;;;3.35;;
21432;SDS011;18592;49.708;10.900;2023-10-09T04:28:11;4.20;;;3.25;;
21432;SDS011;18592;49.708;10.900;2023-10-09T04:30:21;4.20;;;3.15;;
21432;SDS011;18592;49.708;10.900;2023-10-09T04:32:28;4.53;;;3.15;;
21432;SDS011;18592;49.708;10.900;2023-10-09T04:34:30;5.60;;;3.28;;
21432;SDS011;18592;49.708;10.900;2023-10-09T04:36:40;3.83;;;2.95;;
21432;SDS011;18592;49.708;10.900;2023-10-09T04:38:54;3.85;;;3.00;;
21432;SDS011;18592;49.708;10.900;2023-10-09T04:41:05;3.38;;;2.88;;
21432;SDS011;18592;49.708;10.900;2023-10-09T04:43:08;3.22;;;2.92;;
21432;SDS011;18592;49.708;10.900;2023-10-09T04:45:21;3.85;;;2.60;;
21432;SDS011;18592;49.708;10.900;2023-10-09T04:47:43;3.83;;;2.95;;
21432;SDS011;18592;49.708;10.900;2023-10-09T04:50:00;3.30;;;2.80;;
21432;SDS011;18592;49.708;10.900;2023-10-09T04:52:01;4.47;;;2.90;;
21432;SDS011;18592;49.708;10.900;2023-10-09T04:54:08;3.50;;;2.83;;
21432;SDS011;18592;49.708;10.900;2023-10-09T04:56:17;3.38;;;2.75;;
21432;SDS011;18592;49.708;10.900;2023-10-09T04:58:18;3.58;;;3.15;;
21432;SDS011;18592;49.708;10.900;2023-10-09T05:00:27;4.28;;;3.28;;
21432;SDS011;18592;49.708;10.900;2023-10-09T05:02:30;5.10;;;3.80;;
21432;SDS011;18592;49.708;10.900;2023-10-09T05:04:47;5.95;;;4.22;;
21432;SDS011;18592;49.708;10.900;2023-10-09T05:06:52;7.03;;;4.60;;
21432;SDS011;18592;49.708;10.900;2023-10-09T05:08:59;5.70;;;4.43;;
21432;SDS011;18592;49.708;10.900;2023-10-09T05:11:09;7.80;;;5.13;;
21432;SDS011;18592;49.708;10.900;2023-10-09T05:13:35;6.53;;;4.68;;
21432;SDS011;18592;49.708;10.900;2023-10-09T05:15:42;6.40;;;4.65;;
21432;SDS011;18592;49.708;10.900;2023-10-09T05:17:47;7.38;;;5.18;;
21432;SDS011;18592;49.708;10.900;2023-10-09T05:19:57;8.18;;;5.03;;
21432;SDS011;18592;49.708;10.900;2023-10-09T05:22:19;5.65;;;4.57;;
21432;SDS011;18592;49.708;10.900;2023-10-09T05:24:45;6.85;;;5.03;;
21432;SDS011;18592;49.708;10.900;2023-10-09T05:26:49;8.23;;;5.40;;
21432;SDS011;18592;49.708;10.900;2023-10-09T05:28:56;5.88;;;4.82;;
21432;SDS011;18592;49.708;10.900;2023-10-09T05:30:59;8.57;;;5.10;;
21432;SDS011;18592;49.708;10.900;2023-10-09T05:33:08;7.88;;;5.53;;
21432;SDS011;18592;49.708;10.900;2023-10-09T05:35:28;6.93;;;4.68;;
21432;SDS011;18592;49.708;10.900;2023-10-09T05:37:42;5.88;;;4.72;;
21432;SDS011;18592;49.708;10.900;2023-10-09T05:39:47;6.78;;;5.20;;
21432;SDS011;18592;49.708;10.900;2023-10-09T05:42:03;8.00;;;4.60;;
21432;SDS011;18592;49.708;10.900;2023-10-09T05:44:11;5.45;;;4.20;;
21432;SDS011;18592;49.708;10.900;2023-10-09T05:46:36;6.72;;;4.78;;
21432;SDS011;18592;49.708;10.900;2023-10-09T05:48:38;7.72;;;5.40;;
21432;SDS011;18592;49.708;10.900;2023-10-09T05:50:40;6.55;;;5.30;;
21432;SDS011;18592;49.708;10.900;2023-10-09T05:53:01;5.35;;;4.40;;
21432;SDS011;18592;49.708;10.900;2023-10-09T05:55:04;6.25;;;4.82;;
21432;SDS011;18592;49.708;10.900;2023-10-09T05:57:20;6.32;;;5.10;;
21432;SDS011;18592;49.708;10.900;2023-10-09T06:00:04;8.32;;;5.53;;
21432;SDS011;18592;49.708;10.900;2023-10-09T06:02:24;6.88;;;5.05;;
21432;SDS011;18592;49.708;10.900;2023-10-09T06:05:03;7.35;;;5.25;;
21432;SDS011;18592;49.708;10.900;2023-10-09T06:07:21;9.02;;;5.70;;
21432;SDS011;18592;49.708;10.900;2023-10-09T06:09:42;9.13;;;5.78;;
21432;SDS011;18592;49.708;10.900;2023-10-09T06:11:59;8.32;;;5.78;;
21432;SDS011;18592;49.708;10.900;2023-10-09T06:14:21;6.30;;;5.25;;
21432;SDS011;18592;49.708;10.900;2023-10-09T06:16:27;7.50;;;5.50;;
21432;SDS011;18592;49.708;10.900;2023-10-09T06:18:40;7.68;;;5.45;;
21432;SDS011;18592;49.708;10.900;2023-10-09T06:20:48;6.07;;;5.28;;
21432;SDS011;18592;49.708;10.900;2023-10-09T06:23:09;5.40;;;4.90;;
21432;SDS011;18592;49.708;10.900;2023-10-09T06:25:17;5.97;;;4.63;;
21432;SDS011;18592;49.708;10.900;2023-10-09T06:27:19;5.68;;;4.78;;
21432;SDS011;18592;49.708;10.900;2023-10-09T06:29:31;6.05;;;4.20;;
21432;SDS011;18592;49.708;10.900;2023-10-09T06:31:45;5.82;;;4.35;;
21432;SDS011;18592;49.708;10.900;2023-10-09T06:33:59;4.63;;;4.13;;
21432;SDS011;18592;49.708;10.900;2023-10-09T06:36:17;5.53;;;4.38;;
21432;SDS011;18592;49.708;10.900;2023-10-09T06:38:19;5.55;;;4.38;;
21432;SDS011;18592;49.708;10.900;2023-10-09T06:40:25;4.53;;;3.88;;
21432;SDS011;18592;49.708;10.900;2023-10-09T06:42:45;4.80;;;4.03;;
21432;SDS011;18592;49.708;10.900;2023-10-09T06:44:54;5.10;;;4.20;;
21432;SDS011;18592;49.708;10.900;2023-10-09T06:46:55;6.03;;;4.60;;
21432;SDS011;18592;49.708;10.900;2023-10-09T06:48:59;5.95;;;4.32;;
21432;SDS011;18592;49.708;10.900;2023-10-09T06:51:12;5.35;;;4.57;;
21432;SDS011;18592;49.708;10.900;2023-10-09T06:53:27;5.03;;;4.50;;
21432;SDS011;18592;49.708;10.900;2023-10-09T06:55:53;5.32;;;4.65;;
21432;SDS011;18592;49.708;10.900;2023-10-09T06:58:06;5.15;;;4.20;;
21432;SDS011;18592;49.708;10.900;2023-10-09T07:00:11;5.00;;;4.38;;
21432;SDS011;18592;49.708;10.900;2023-10-09T07:02:32;5.07;;;3.85;;
21432;SDS011;18592;49.708;10.900;2023-10-09T07:04:47;3.95;;;3.38;;
21432;SDS011;18592;49.708;10.900;2023-10-09T07:06:49;5.32;;;4.32;;
21432;SDS011;18592;49.708;10.900;2023-10-09T07:08:53;3.67;;;3.38;;
21432;SDS011;18592;49.708;10.900;2023-10-09T07:11:17;4.22;;;3.83;;
21432;SDS011;18592;49.708;10.900;2023-10-09T07:13:37;4.68;;;4.22;;
21432;SDS011;18592;49.708;10.900;2023-10-09T07:15:42;4.40;;;3.80;;
21432;SDS011;18592;49.708;10.900;2023-10-09T07:18:03;4.35;;;3.95;;
21432;SDS011;18592;49.708;10.900;2023-10-09T07:20:20;5.82;;;4.10;;
21432;SDS011;18592;49.708;10.900;2023-10-09T07:22:46;4.47;;;3.97;;
21432;SDS011;18592;49.708;10.900;2023-10-09T07:24:55;4.88;;;4.32;;
21432;SDS011;18592;49.708;10.900;2023-10-09T07:26:57;5.07;;;3.97;;
21432;SDS011;18592;49.708;10.900;2023-10-09T07:29:07;5.13;;;4.00;;
21432;SDS011;18592;49.708;10.900;2023-10-09T07:31:18;4.43;;;3.70;;
21432;SDS011;18592;49.708;10.900;2023-10-09T07:33:28;5.32;;;4.10;;
21432;SDS011;18592;49.708;10.900;2023-10-09T07:35:49;5.57;;;4.00;;
21432;SDS011;18592;49.708;10.900;2023-10-09T07:37:54;5.15;;;4.00;;
21432;SDS011;18592;49.708;10.900;2023-10-09T07:39:55;4.85;;;4.15;;
21432;SDS011;18592;49.708;10.900;2023-10-09T07:42:01;4.75;;;3.88;;
21432;SDS011;18592;49.708;10.900;2023-10-09T07:44:28;6.38;;;3.88;;
21432;SDS011;18592;49.708;10.900;2023-10-09T07:46:37;5.65;;;4.03;;
21432;SDS011;18592;49.708;10.900;2023-10-09T07:48:57;5.38;;;3.97;;
21432;SDS011;18592;49.708;10.900;2023-10-09T07:51:13;6.57;;;3.92;;
21432;SDS011;18592;49.708;10.900;2023-10-09T07:53:17;5.75;;;4.03;;
21432;SDS011;18592;49.708;10.900;2023-10-09T07:55:41;9.05;;;5.05;;
21432;SDS011;18592;49.708;10.900;2023-10-09T07:57:50;5.97;;;4.25;;
21432;SDS011;18592;49.708;10.900;2023-10-09T07:59:53;12.10;;;4.57;;
21432;SDS011;18592;49.708;10.900;2023-10-09T08:02:13;6.50;;;3.72;;
21432;SDS011;18592;49.708;10.900;2023-10-09T08:04:15;5.82;;;3.78;;
21432;SDS011;18592;49.708;10.900;2023-10-09T08:06:17;5.00;;;3.85;;
21432;SDS011;18592;49.708;10.900;2023-10-09T08:08:37;8.00;;;3.83;;
21432;SDS011;18592;49.708;10.900;2023-10-09T08:11:02;10.43;;;4.13;;
21432;SDS011;18592;49.708;10.900;2023-10-09T08:13:22;6.15;;;3.72;;
21432;SDS011;18592;49.708;10.900;2023-10-09T08:15:42;8.43;;;4.07;;
21432;SDS011;18592;49.708;10.900;2023-10-09T08:17:54;10.90;;;4.93;;
21432;SDS011;18592;49.708;10.900;2023-10-09T08:20:15;13.68;;;5.68;;
21432;SDS011;18592;49.708;10.900;2023-10-09T08:22:22;11.93;;;5.65;;
21432;SDS011;18592;49.708;10.900;2023-10-09T08:24:30;16.90;;;6.00;;
21432;SDS011;18592;49.708;10.900;2023-10-09T08:26:43;10.32;;;5.20;;
21432;SDS011;18592;49.708;10.900;2023-10-09T08:28:49;10.57;;;5.38;;
21432;SDS011;18592;49.708;10.900;2023-10-09T08:30:51;15.63;;;6.53;;
21432;SDS011;18592;49.708;10.900;2023-10-09T08:32:56;17.52;;;7.10;;
21432;SDS011;18592;49.708;10.900;2023-10-09T08:35:07;16.48;;;8.02;;
21432;SDS011;18592;49.708;10.900;2023-10-09T08:37:28;17.25;;;7.30;;
21432;SDS011;18592;49.708;10.900;2023-10-09T08:39:31;18.23;;;7.60;;
21432;SDS011;18592;49.708;10.900;2023-10-09T08:41:36;17.90;;;7.90;;
21432;SDS011;18592;49.708;10.900;2023-10-09T08:43:39;23.23;;;9.00;;
21432;SDS011;18592;49.708;10.900;2023-10-09T08:45:46;20.92;;;9.20;;
21432;SDS011;18592;49.708;10.900;2023-10-09T08:47:49;21.75;;;9.20;;
21432;SDS011;18592;49.708;10.900;2023-10-09T08:49:53;21.58;;;9.55;;
21432;SDS011;18592;49.708;10.900;2023-10-09T08:51:55;19.58;;;8.43;;
21432;SDS011;18592;49.708;10.900;2023-10-09T08:53:57;20.75;;;8.18;;
21432;SDS011;18592;49.708;10.900;2023-10-09T08:55:59;17.20;;;7.38;;
21432;SDS011;18592;49.708;10.900;2023-10-09T09:19:19;11.70;;;5.78;;
21432;SDS011;18592;49.708;10.900;2023-10-09T09:21:33;9.40;;;5.15;;
21432;SDS011;18592;49.708;10.900;2023-10-09T09:23:53;9.50;;;4.75;;
21432;SDS011;18592;49.708;10.900;2023-10-09T09:25:59;8.77;;;4.63;;
21432;SDS011;18592;49.708;10.900;2023-10-09T09:28:03;8.10;;;4.85;;
21432;SDS011;18592;49.708;10.900;2023-10-09T09:30:22;8.25;;;4.30;;
21432;SDS011;18592;49.708;10.900;2023-10-09T09:32:36;10.18;;;5.10;;
21432;SDS011;18592;49.708;10.900;2023-10-09T09:34:43;8.60;;;4.50;;
21432;SDS011;18592;49.708;10.900;2023-10-09T09:36:50;10.07;;;4.63;;
21432;SDS011;18592;49.708;10.900;2023-10-09T09:38:55;8.63;;;4.13;;
21432;SDS011;18592;49.708;10.900;2023-10-09T09:41:02;7.40;;;3.90;;
21432;SDS011;18592;49.708;10.900;2023-10-09T09:43:08;8.45;;;4.28;;
21432;SDS011;18592;49.708;10.900;2023-10-09T09:45:18;6.10;;;3.95;;
21432;SDS011;18592;49.708;10.900;2023-10-09T09:47:24;8.10;;;4.35;;
21432;SDS011;18592;49.708;10.900;2023-10-09T09:49:29;9.45;;;4.97;;
21432;SDS011;18592;49.708;10.900;2023-10-09T09:51:33;6.70;;;4.20;;
21432;SDS011;18592;49.708;10.900;2023-10-09T09:53:39;8.40;;;4.75;;
21432;SDS011;18592;49.708;10.900;2023-10-09T09:55:42;7.07;;;4.35;;
21432;SDS011;18592;49.708;10.900;2023-10-09T09:57:53;6.82;;;4.10;;
21432;SDS011;18592;49.708;10.900;2023-10-09T09:59:55;8.95;;;4.03;;
21432;SDS011;18592;49.708;10.900;2023-10-09T10:01:58;8.35;;;3.90;;
21432;SDS011;18592;49.708;10.900;2023-10-09T10:04:11;6.57;;;3.70;;
21432;SDS011;18592;49.708;10.900;2023-10-09T10:06:21;8.05;;;3.90;;
21432;SDS011;18592;49.708;10.900;2023-10-09T10:08:28;6.00;;;3.40;;
21432;SDS011;18592;49.708;10.900;2023-10-09T10:10:37;6.32;;;3.83;;
21432;SDS011;18592;49.708;10.900;2023-10-09T10:12:49;8.95;;;4.82;;
21432;SDS011;18592;49.708;10.900;2023-10-09T10:15:02;9.55;;;5.05;;
21432;SDS011;18592;49.708;10.900;2023-10-09T10:17:10;8.02;;;5.75;;
21432;SDS011;18592;49.708;10.900;2023-10-09T10:19:20;8.55;;;5.63;;
21432;SDS011;18592;49.708;10.900;2023-10-09T10:21:23;9.73;;;5.63;;
21432;SDS011;18592;49.708;10.900;2023-10-09T10:23:33;6.63;;;5.10;;
21432;SDS011;18592;49.708;10.900;2023-10-09T10:25:39;8.25;;;5.40;;
21432;SDS011;18592;49.708;10.900;2023-10-09T10:27:43;8.05;;;5.18;;
21432;SDS011;18592;49.708;10.900;2023-10-09T10:32:11;6.95;;;4.55;;
21432;SDS011;18592;49.708;10.900;2023-10-09T10:34:15;8.45;;;4.95;;
21432;SDS011;18592;49.708;10.900;2023-10-09T10:36:23;7.40;;;4.43;;
21432;SDS011;18592;49.708;10.900;2023-10-09T10:38:32;7.40;;;4.57;;
21432;SDS011;18592;49.708;10.900;2023-10-09T10:40:51;9.05;;;4.57;;
21432;SDS011;18592;49.708;10.900;2023-10-09T10:42:58;8.05;;;4.25;;
21432;SDS011;18592;49.708;10.900;2023-10-09T10:45:17;6.38;;;4.35;;
21432;SDS011;18592;49.708;10.900;2023-10-09T10:47:39;5.30;;;3.90;;
21432;SDS011;18592;49.708;10.900;2023-10-09T10:49:43;6.30;;;3.80;;
21432;SDS011;18592;49.708;10.900;2023-10-09T10:51:46;5.40;;;3.30;;
21432;SDS011;18592;49.708;10.900;2023-10-09T10:53:52;5.50;;;3.60;;
21432;SDS011;18592;49.708;10.900;2023-10-09T10:56:15;5.63;;;3.53;;
21432;SDS011;18592;49.708;10.900;2023-10-09T10:58:17;5.47;;;3.65;;
21432;SDS011;18592;49.708;10.900;2023-10-09T11:00:26;4.95;;;3.30;;
21432;SDS011;18592;49.708;10.900;2023-10-09T11:02:47;4.78;;;3.30;;
21432;SDS011;18592;49.708;10.900;2023-10-09T11:04:50;6.50;;;3.08;;
21432;SDS011;18592;49.708;10.900;2023-10-09T11:07:12;5.15;;;3.42;;
21432;SDS011;18592;49.708;10.900;2023-10-09T11:09:26;5.18;;;3.03;;
21432;SDS011;18592;49.708;10.900;2023-10-09T11:11:52;5.53;;;3.25;;
21432;SDS011;18592;49.708;10.900;2023-10-09T11:14:13;5.40;;;2.92;;
21432;SDS011;18592;49.708;10.900;2023-10-09T11:16:26;4.97;;;2.78;;
21432;SDS011;18592;49.708;10.900;2023-10-09T11:18:38;4.35;;;3.05;;
21432;SDS011;18592;49.708;10.900;2023-10-09T11:20:52;6.05;;;3.08;;
21432;SDS011;18592;49.708;10.900;2023-10-09T11:23:03;4.30;;;2.90;;
21432;SDS011;18592;49.708;10.900;2023-10-09T11:25:12;4.57;;;3.10;;
21432;SDS011;18592;49.708;10.900;2023-10-09T11:27:13;6.05;;;3.38;;
21432;SDS011;18592;49.708;10.900;2023-10-09T11:29:20;7.70;;;3.38;;
21432;SDS011;18592;49.708;10.900;2023-10-09T11:42:30;4.07;;;2.72;;
21432;SDS011;18592;49.708;10.900;2023-10-09T11:44:50;4.15;;;3.00;;
21432;SDS011;18592;49.708;10.900;2023-10-09T11:46:58;3.53;;;2.55;;
21432;SDS011;18592;49.708;10.900;2023-10-09T11:49:25;3.75;;;2.45;;
21432;SDS011;18592;49.708;10.900;2023-10-09T11:51:47;4.43;;;2.50;;
21432;SDS011;18592;49.708;10.900;2023-10-09T11:54:08;4.03;;;2.50;;
21432;SDS011;18592;49.708;10.900;2023-10-09T11:56:10;5.72;;;2.88;;
21432;SDS011;18592;49.708;10.900;2023-10-09T11:58:14;5.65;;;3.03;;
21432;SDS011;18592;49.708;10.900;2023-10-09T12:00:23;5.85;;;2.92;;
21432;SDS011;18592;49.708;10.900;2023-10-09T12:02:28;5.85;;;3.20;;
21432;SDS011;18592;49.708;10.900;2023-10-09T12:04:30;7.00;;;3.63;;
21432;SDS011;18592;49.708;10.900;2023-10-09T12:06:30;6.97;;;4.00;;
21432;SDS011;18592;49.708;10.900;2023-10-09T12:08:34;7.53;;;4.05;;
21432;SDS011;18592;49.708;10.900;2023-10-09T12:10:36;7.25;;;4.15;;
21432;SDS011;18592;49.708;10.900;2023-10-09T12:12:40;6.63;;;3.97;;
21432;SDS011;18592;49.708;10.900;2023-10-09T12:14:47;10.05;;;4.25;;
21432;SDS011;18592;49.708;10.900;2023-10-09T12:16:52;6.72;;;3.50;;
21432;SDS011;18592;49.708;10.900;2023-10-09T12:18:58;9.07;;;4.43;;
21432;SDS011;18592;49.708;10.900;2023-10-09T12:21:00;8.60;;;4.40;;
21432;SDS011;18592;49.708;10.900;2023-10-09T12:23:13;6.50;;;4.10;;
21432;SDS011;18592;49.708;10.900;2023-10-09T12:25:16;7.15;;;3.72;;
21432;SDS011;18592;49.708;10.900;2023-10-09T12:27:20;6.05;;;3.47;;
21432;SDS011;18592;49.708;10.900;2023-10-09T12:29:23;6.13;;;3.58;;
21432;SDS011;18592;49.708;10.900;2023-10-09T12:31:25;7.93;;;3.70;;
21432;SDS011;18592;49.708;10.900;2023-10-09T12:33:27;6.45;;;3.50;;
21432;SDS011;18592;49.708;10.900;2023-10-09T12:35:30;10.90;;;3.67;;
21432;SDS011;18592;49.708;10.900;2023-10-09T12:37:34;6.38;;;3.60;;
21432;SDS011;18592;49.708;10.900;2023-10-09T12:39:35;5.78;;;3.15;;
21432;SDS011;18592;49.708;10.900;2023-10-09T12:41:41;9.65;;;3.58;;
21432;SDS011;18592;49.708;10.900;2023-10-09T12:43:43;6.68;;;3.50;;
21432;SDS011;18592;49.708;10.900;2023-10-09T12:45:45;7.85;;;3.55;;
21432;SDS011;18592;49.708;10.900;2023-10-09T12:47:47;6.20;;;3.45;;
21432;SDS011;18592;49.708;10.900;2023-10-09T12:49:49;10.07;;;3.58;;
21432;SDS011;18592;49.708;10.900;2023-10-09T12:52:04;6.38;;;3.50;;
21432;SDS011;18592;49.708;10.900;2023-10-09T12:54:05;7.18;;;3.78;;
21432;SDS011;18592;49.708;10.900;2023-10-09T12:56:06;5.93;;;3.10;;
21432;SDS011;18592;49.708;10.900;2023-10-09T12:58:09;6.07;;;3.70;;
21432;SDS011;18592;49.708;10.900;2023-10-09T13:00:20;7.85;;;3.63;;
21432;SDS011;18592;49.708;10.900;2023-10-09T13:02:27;7.70;;;3.55;;
21432;SDS011;18592;49.708;10.900;2023-10-09T13:04:31;7.75;;;3.90;;
21432;SDS011;18592;49.708;10.900;2023-10-09T13:06:34;5.35;;;3.35;;
21432;SDS011;18592;49.708;10.900;2023-10-09T13:08:51;8.10;;;3.70;;
21432;SDS011;18592;49.708;10.900;2023-10-09T13:10:52;6.30;;;3.50;;
21432;SDS011;18592;49.708;10.900;2023-10-09T13:13:00;7.65;;;3.35;;
21432;SDS011;18592;49.708;10.900;2023-10-09T13:15:00;7.07;;;3.03;;
21432;SDS011;18592;49.708;10.900;2023-10-09T13:27:40;5.18;;;3.10;;
21432;SDS011;18592;49.708;10.900;2023-10-09T13:29:42;4.07;;;3.10;;